Pamelia Four Corners, New York
Current Conditions -  °F | °C
As of 6:58 AM on Monday 22 Dec 2014 (Local Time) from KGTB Reporting Station
Overcast Overcast  
Wind Chill: 22°   Ceiling: 1700
Heat Index: 22°   Visibility: 10mi
Dew Point: 18°   Wind: 2mph
Humidity: 85%   Direction: 60°ENE
Pressure: 30.3"   Gusts: NA
Location:  44.0981°N, 75.8331°W
Report Text: KGTB 221158Z AUTO 06002KT 10SM OVC017 M05/M08 A3030 RMK AO2 SLP272 T10541076 11051 21095 56004
Loading
Personal Weather Stations






























Interactive Weather Map New forecast layout! Learn more

10-Day Weather Forecast

Advertisements
Track Severe Weather on mobile